NZQN/ZQN METAR and TAF weather

Enter ICAO airport designator
Station Type Date Time Source
NZQN METAR UTC NOAA

Error!


Station Type Date Time Source
NZQN Decoded METAR UTC NOAA

Error!

Station Type Date Time Source
NZQN TAF 2019/08/24 18:07 UTC NOAA

TAF NZQN 241707Z 2418/2512 02005KT 9999 SKC
FM250000 26010KT 9999 SCT060
BECMG 2506/2508 04005KT

Example: see airport list